sensor_id;sensor_type;location;lat;lon;timestamp;temperature;humidity
15556;DHT22;7879;48.660;9.116;2023-08-07T00:02:07;11.20;99.90
15556;DHT22;7879;48.660;9.116;2023-08-07T00:04:34;11.20;99.90
15556;DHT22;7879;48.660;9.116;2023-08-07T00:07:01;11.20;99.90
15556;DHT22;7879;48.660;9.116;2023-08-07T00:09:28;11.20;99.90
15556;DHT22;7879;48.660;9.116;2023-08-07T00:11:55;11.20;99.90
15556;DHT22;7879;48.660;9.116;2023-08-07T00:14:23;11.20;99.90
15556;DHT22;7879;48.660;9.116;2023-08-07T00:16:50;11.10;99.90
15556;DHT22;7879;48.660;9.116;2023-08-07T00:19:17;11.10;99.90
15556;DHT22;7879;48.660;9.116;2023-08-07T00:21:44;11.20;99.90
15556;DHT22;7879;48.660;9.116;2023-08-07T00:24:11;11.20;99.90
15556;DHT22;7879;48.660;9.116;2023-08-07T00:26:37;11.10;99.90
15556;DHT22;7879;48.660;9.116;2023-08-07T00:29:04;11.10;99.90
15556;DHT22;7879;48.660;9.116;2023-08-07T00:31:31;11.00;99.90
15556;DHT22;7879;48.660;9.116;2023-08-07T00:33:59;11.00;99.90
15556;DHT22;7879;48.660;9.116;2023-08-07T00:36:27;11.00;99.90
15556;DHT22;7879;48.660;9.116;2023-08-07T00:38:55;10.90;99.90
15556;DHT22;7879;48.660;9.116;2023-08-07T00:41:23;11.00;99.90
15556;DHT22;7879;48.660;9.116;2023-08-07T00:43:50;11.00;99.90
15556;DHT22;7879;48.660;9.116;2023-08-07T00:46:17;11.10;99.90
15556;DHT22;7879;48.660;9.116;2023-08-07T00:48:45;11.00;99.90
15556;DHT22;7879;48.660;9.116;2023-08-07T00:51:12;11.00;99.90
15556;DHT22;7879;48.660;9.116;2023-08-07T00:53:40;11.00;99.90
15556;DHT22;7879;48.660;9.116;2023-08-07T00:56:07;11.00;99.90
15556;DHT22;7879;48.660;9.116;2023-08-07T00:58:34;10.90;99.90
15556;DHT22;7879;48.660;9.116;2023-08-07T01:01:03;10.90;99.90
15556;DHT22;7879;48.660;9.116;2023-08-07T01:03:31;10.80;99.90
15556;DHT22;7879;48.660;9.116;2023-08-07T01:05:58;10.90;99.90
15556;DHT22;7879;48.660;9.116;2023-08-07T01:08:26;10.90;99.90
15556;DHT22;7879;48.660;9.116;2023-08-07T01:16:50;10.80;99.90
15556;DHT22;7879;48.660;9.116;2023-08-07T01:19:28;10.80;99.90
15556;DHT22;7879;48.660;9.116;2023-08-07T01:22:09;10.80;99.90
15556;DHT22;7879;48.660;9.116;2023-08-07T01:24:36;10.80;99.90
15556;DHT22;7879;48.660;9.116;2023-08-07T01:32:59;10.90;99.90
15556;DHT22;7879;48.660;9.116;2023-08-07T01:35:36;10.80;99.90
15556;DHT22;7879;48.660;9.116;2023-08-07T01:38:05;10.80;99.90
15556;DHT22;7879;48.660;9.116;2023-08-07T01:40:32;10.80;99.90
15556;DHT22;7879;48.660;9.116;2023-08-07T01:43:00;10.80;99.90
15556;DHT22;7879;48.660;9.116;2023-08-07T01:45:28;10.80;99.90
15556;DHT22;7879;48.660;9.116;2023-08-07T01:47:56;10.70;99.90
15556;DHT22;7879;48.660;9.116;2023-08-07T01:50:23;10.70;99.90
15556;DHT22;7879;48.660;9.116;2023-08-07T01:52:50;10.70;99.90
15556;DHT22;7879;48.660;9.116;2023-08-07T01:55:20;10.70;99.90
15556;DHT22;7879;48.660;9.116;2023-08-07T01:57:47;10.70;99.90
15556;DHT22;7879;48.660;9.116;2023-08-07T02:00:14;10.70;99.90
15556;DHT22;7879;48.660;9.116;2023-08-07T02:02:41;10.70;99.90
15556;DHT22;7879;48.660;9.116;2023-08-07T02:05:07;10.70;99.90
15556;DHT22;7879;48.660;9.116;2023-08-07T02:07:34;10.70;99.90
15556;DHT22;7879;48.660;9.116;2023-08-07T02:10:01;10.70;99.90
15556;DHT22;7879;48.660;9.116;2023-08-07T02:12:28;10.70;99.90
15556;DHT22;7879;48.660;9.116;2023-08-07T02:14:59;10.70;99.90
15556;DHT22;7879;48.660;9.116;2023-08-07T02:17:29;10.80;99.90
15556;DHT22;7879;48.660;9.116;2023-08-07T02:20:08;10.70;99.90
15556;DHT22;7879;48.660;9.116;2023-08-07T02:22:35;10.80;99.90
15556;DHT22;7879;48.660;9.116;2023-08-07T02:25:02;10.70;99.90
15556;DHT22;7879;48.660;9.116;2023-08-07T02:27:29;10.70;99.90
15556;DHT22;7879;48.660;9.116;2023-08-07T02:29:55;10.80;99.90
15556;DHT22;7879;48.660;9.116;2023-08-07T02:32:22;10.80;99.90
15556;DHT22;7879;48.660;9.116;2023-08-07T02:34:49;10.70;99.90
15556;DHT22;7879;48.660;9.116;2023-08-07T02:37:16;10.70;99.90
15556;DHT22;7879;48.660;9.116;2023-08-07T02:39:43;10.70;99.90
15556;DHT22;7879;48.660;9.116;2023-08-07T02:42:10;10.80;99.90
15556;DHT22;7879;48.660;9.116;2023-08-07T02:44:37;10.80;99.90
15556;DHT22;7879;48.660;9.116;2023-08-07T02:47:04;10.80;99.90
15556;DHT22;7879;48.660;9.116;2023-08-07T02:49:31;10.80;99.90
15556;DHT22;7879;48.660;9.116;2023-08-07T02:51:58;10.80;99.90
15556;DHT22;7879;48.660;9.116;2023-08-07T02:54:24;10.80;99.90
15556;DHT22;7879;48.660;9.116;2023-08-07T02:56:51;10.80;99.90
15556;DHT22;7879;48.660;9.116;2023-08-07T02:59:18;10.80;99.90
15556;DHT22;7879;48.660;9.116;2023-08-07T03:01:45;10.80;99.90
15556;DHT22;7879;48.660;9.116;2023-08-07T03:04:12;10.80;99.90
15556;DHT22;7879;48.660;9.116;2023-08-07T03:06:39;10.80;99.90
15556;DHT22;7879;48.660;9.116;2023-08-07T03:09:06;10.90;99.90
15556;DHT22;7879;48.660;9.116;2023-08-07T03:11:33;10.80;99.90
15556;DHT22;7879;48.660;9.116;2023-08-07T03:14:02;10.80;99.90
15556;DHT22;7879;48.660;9.116;2023-08-07T03:16:45;10.80;99.90
15556;DHT22;7879;48.660;9.116;2023-08-07T03:19:12;10.80;99.90
15556;DHT22;7879;48.660;9.116;2023-08-07T03:21:39;10.80;99.90
15556;DHT22;7879;48.660;9.116;2023-08-07T03:24:06;10.80;99.90
15556;DHT22;7879;48.660;9.116;2023-08-07T03:26:32;10.80;99.90
15556;DHT22;7879;48.660;9.116;2023-08-07T03:28:59;10.80;99.90
15556;DHT22;7879;48.660;9.116;2023-08-07T03:31:26;10.80;99.90
15556;DHT22;7879;48.660;9.116;2023-08-07T03:33:53;10.80;99.90
15556;DHT22;7879;48.660;9.116;2023-08-07T03:36:20;10.80;99.90
15556;DHT22;7879;48.660;9.116;2023-08-07T03:38:47;10.70;99.90
15556;DHT22;7879;48.660;9.116;2023-08-07T03:41:13;10.70;99.90
15556;DHT22;7879;48.660;9.116;2023-08-07T03:43:40;10.80;99.90
15556;DHT22;7879;48.660;9.116;2023-08-07T03:46:07;10.70;99.90
15556;DHT22;7879;48.660;9.116;2023-08-07T03:48:34;10.70;99.90
15556;DHT22;7879;48.660;9.116;2023-08-07T03:51:05;10.70;99.90
15556;DHT22;7879;48.660;9.116;2023-08-07T03:53:32;10.70;99.90
15556;DHT22;7879;48.660;9.116;2023-08-07T03:55:59;10.70;99.90
15556;DHT22;7879;48.660;9.116;2023-08-07T03:58:26;10.70;99.90
15556;DHT22;7879;48.660;9.116;2023-08-07T04:00:52;10.70;99.90
15556;DHT22;7879;48.660;9.116;2023-08-07T04:03:20;10.60;99.90
15556;DHT22;7879;48.660;9.116;2023-08-07T04:05:51;10.60;99.90
15556;DHT22;7879;48.660;9.116;2023-08-07T04:08:19;10.60;99.90
15556;DHT22;7879;48.660;9.116;2023-08-07T04:10:57;10.50;99.90
15556;DHT22;7879;48.660;9.116;2023-08-07T04:13:25;10.40;99.90
15556;DHT22;7879;48.660;9.116;2023-08-07T04:15:52;10.40;99.90
15556;DHT22;7879;48.660;9.116;2023-08-07T04:18:18;10.30;99.90
15556;DHT22;7879;48.660;9.116;2023-08-07T04:20:53;10.40;99.90
15556;DHT22;7879;48.660;9.116;2023-08-07T04:23:20;10.40;99.90
15556;DHT22;7879;48.660;9.116;2023-08-07T04:25:48;10.40;99.90
15556;DHT22;7879;48.660;9.116;2023-08-07T04:28:15;10.30;99.90
15556;DHT22;7879;48.660;9.116;2023-08-07T04:30:42;10.30;99.90
15556;DHT22;7879;48.660;9.116;2023-08-07T04:33:09;10.30;99.90
15556;DHT22;7879;48.660;9.116;2023-08-07T04:35:36;10.30;99.90
15556;DHT22;7879;48.660;9.116;2023-08-07T04:38:03;10.30;99.90
15556;DHT22;7879;48.660;9.116;2023-08-07T04:40:30;10.30;99.90
15556;DHT22;7879;48.660;9.116;2023-08-07T04:42:57;10.20;99.90
15556;DHT22;7879;48.660;9.116;2023-08-07T04:45:24;10.20;99.90
15556;DHT22;7879;48.660;9.116;2023-08-07T04:47:50;10.10;99.90
15556;DHT22;7879;48.660;9.116;2023-08-07T04:50:18;10.20;99.90
15556;DHT22;7879;48.660;9.116;2023-08-07T04:52:45;10.10;99.90
15556;DHT22;7879;48.660;9.116;2023-08-07T04:55:11;10.10;99.90
15556;DHT22;7879;48.660;9.116;2023-08-07T04:57:38;10.00;99.90
15556;DHT22;7879;48.660;9.116;2023-08-07T05:00:06;10.00;99.90
15556;DHT22;7879;48.660;9.116;2023-08-07T05:02:32;10.00;99.90
15556;DHT22;7879;48.660;9.116;2023-08-07T05:05:00;10.10;99.90
15556;DHT22;7879;48.660;9.116;2023-08-07T05:07:26;10.00;99.90
15556;DHT22;7879;48.660;9.116;2023-08-07T05:09:53;10.10;99.90
15556;DHT22;7879;48.660;9.116;2023-08-07T05:12:20;10.00;99.90
15556;DHT22;7879;48.660;9.116;2023-08-07T05:14:46;10.00;99.90
15556;DHT22;7879;48.660;9.116;2023-08-07T05:17:13;10.10;99.90
15556;DHT22;7879;48.660;9.116;2023-08-07T05:19:40;10.10;99.90
15556;DHT22;7879;48.660;9.116;2023-08-07T05:22:07;10.00;99.90
15556;DHT22;7879;48.660;9.116;2023-08-07T05:24:33;10.10;99.90
15556;DHT22;7879;48.660;9.116;2023-08-07T05:27:09;10.20;99.90
15556;DHT22;7879;48.660;9.116;2023-08-07T05:29:36;10.20;99.90
15556;DHT22;7879;48.660;9.116;2023-08-07T05:32:11;10.20;99.90
15556;DHT22;7879;48.660;9.116;2023-08-07T05:34:38;10.30;99.90
15556;DHT22;7879;48.660;9.116;2023-08-07T05:37:06;10.30;99.90
15556;DHT22;7879;48.660;9.116;2023-08-07T05:39:34;10.40;99.90
15556;DHT22;7879;48.660;9.116;2023-08-07T05:42:01;10.40;99.90
15556;DHT22;7879;48.660;9.116;2023-08-07T05:44:29;10.50;99.90
15556;DHT22;7879;48.660;9.116;2023-08-07T05:46:56;10.50;99.90
15556;DHT22;7879;48.660;9.116;2023-08-07T05:49:23;10.60;99.90
15556;DHT22;7879;48.660;9.116;2023-08-07T05:51:52;10.60;99.90
15556;DHT22;7879;48.660;9.116;2023-08-07T05:54:20;10.60;99.90
15556;DHT22;7879;48.660;9.116;2023-08-07T05:56:47;10.70;99.90
15556;DHT22;7879;48.660;9.116;2023-08-07T05:59:14;10.70;99.90
15556;DHT22;7879;48.660;9.116;2023-08-07T06:01:42;10.80;99.90
15556;DHT22;7879;48.660;9.116;2023-08-07T06:04:09;10.80;99.90
15556;DHT22;7879;48.660;9.116;2023-08-07T06:06:36;10.80;99.90
15556;DHT22;7879;48.660;9.116;2023-08-07T06:09:03;10.90;99.90
15556;DHT22;7879;48.660;9.116;2023-08-07T06:11:33;10.90;99.90
15556;DHT22;7879;48.660;9.116;2023-08-07T06:14:00;10.90;99.90
15556;DHT22;7879;48.660;9.116;2023-08-07T06:16:27;10.90;99.90
15556;DHT22;7879;48.660;9.116;2023-08-07T06:18:54;11.00;99.90
15556;DHT22;7879;48.660;9.116;2023-08-07T06:21:21;11.00;99.90
15556;DHT22;7879;48.660;9.116;2023-08-07T06:23:48;11.00;99.90
15556;DHT22;7879;48.660;9.116;2023-08-07T06:26:15;11.10;99.90
15556;DHT22;7879;48.660;9.116;2023-08-07T06:28:42;11.10;99.90
15556;DHT22;7879;48.660;9.116;2023-08-07T06:31:11;11.10;99.90
15556;DHT22;7879;48.660;9.116;2023-08-07T06:33:38;11.20;99.90
15556;DHT22;7879;48.660;9.116;2023-08-07T06:36:06;11.10;99.90
15556;DHT22;7879;48.660;9.116;2023-08-07T06:38:34;11.20;99.90
15556;DHT22;7879;48.660;9.116;2023-08-07T06:41:01;11.20;99.90
15556;DHT22;7879;48.660;9.116;2023-08-07T06:43:28;11.20;99.90
15556;DHT22;7879;48.660;9.116;2023-08-07T06:45:56;11.30;99.90
15556;DHT22;7879;48.660;9.116;2023-08-07T06:48:23;11.30;99.90
15556;DHT22;7879;48.660;9.116;2023-08-07T06:50:50;11.30;99.90
15556;DHT22;7879;48.660;9.116;2023-08-07T06:53:18;11.30;99.90
15556;DHT22;7879;48.660;9.116;2023-08-07T06:55:45;11.40;99.90
15556;DHT22;7879;48.660;9.116;2023-08-07T06:58:12;11.40;99.90
15556;DHT22;7879;48.660;9.116;2023-08-07T07:00:39;11.40;99.90
15556;DHT22;7879;48.660;9.116;2023-08-07T07:03:06;11.50;99.90
15556;DHT22;7879;48.660;9.116;2023-08-07T07:05:34;11.60;99.90
15556;DHT22;7879;48.660;9.116;2023-08-07T07:08:01;11.60;99.90
15556;DHT22;7879;48.660;9.116;2023-08-07T07:10:28;11.60;99.90
15556;DHT22;7879;48.660;9.116;2023-08-07T07:12:55;11.70;99.90
15556;DHT22;7879;48.660;9.116;2023-08-07T07:15:22;11.70;99.90
15556;DHT22;7879;48.660;9.116;2023-08-07T07:17:49;11.80;99.90
15556;DHT22;7879;48.660;9.116;2023-08-07T07:20:15;11.90;99.90
15556;DHT22;7879;48.660;9.116;2023-08-07T07:22:42;11.90;99.90
15556;DHT22;7879;48.660;9.116;2023-08-07T07:25:09;11.90;99.90
15556;DHT22;7879;48.660;9.116;2023-08-07T07:27:36;12.00;99.90
15556;DHT22;7879;48.660;9.116;2023-08-07T07:30:04;11.90;99.90
15556;DHT22;7879;48.660;9.116;2023-08-07T07:32:31;12.00;99.90
15556;DHT22;7879;48.660;9.116;2023-08-07T07:34:57;12.00;99.90
15556;DHT22;7879;48.660;9.116;2023-08-07T07:37:24;12.10;99.90
15556;DHT22;7879;48.660;9.116;2023-08-07T07:39:51;12.30;99.90
15556;DHT22;7879;48.660;9.116;2023-08-07T07:42:18;12.30;99.90
15556;DHT22;7879;48.660;9.116;2023-08-07T07:44:45;12.40;99.90
15556;DHT22;7879;48.660;9.116;2023-08-07T07:47:12;12.60;99.90
15556;DHT22;7879;48.660;9.116;2023-08-07T07:49:45;12.60;99.90
15556;DHT22;7879;48.660;9.116;2023-08-07T07:52:14;12.70;99.90
15556;DHT22;7879;48.660;9.116;2023-08-07T07:54:41;12.80;99.90
15556;DHT22;7879;48.660;9.116;2023-08-07T07:57:08;13.00;99.90
15556;DHT22;7879;48.660;9.116;2023-08-07T07:59:35;13.00;99.90
15556;DHT22;7879;48.660;9.116;2023-08-07T08:02:01;13.10;99.90
15556;DHT22;7879;48.660;9.116;2023-08-07T08:04:28;13.10;99.90
15556;DHT22;7879;48.660;9.116;2023-08-07T08:06:55;13.10;99.90
15556;DHT22;7879;48.660;9.116;2023-08-07T08:09:22;13.20;99.90
15556;DHT22;7879;48.660;9.116;2023-08-07T08:11:49;13.20;99.90
15556;DHT22;7879;48.660;9.116;2023-08-07T08:14:16;13.30;99.90
15556;DHT22;7879;48.660;9.116;2023-08-07T08:16:43;13.40;99.90
15556;DHT22;7879;48.660;9.116;2023-08-07T08:19:10;13.50;99.90
15556;DHT22;7879;48.660;9.116;2023-08-07T08:21:36;13.60;99.90
15556;DHT22;7879;48.660;9.116;2023-08-07T08:24:04;13.70;99.90
15556;DHT22;7879;48.660;9.116;2023-08-07T08:26:31;13.80;99.90
15556;DHT22;7879;48.660;9.116;2023-08-07T08:28:58;13.80;99.90
15556;DHT22;7879;48.660;9.116;2023-08-07T08:31:24;13.80;99.90
15556;DHT22;7879;48.660;9.116;2023-08-07T08:33:51;13.70;99.90
15556;DHT22;7879;48.660;9.116;2023-08-07T08:36:18;13.70;99.90
15556;DHT22;7879;48.660;9.116;2023-08-07T08:38:45;13.80;99.90
15556;DHT22;7879;48.660;9.116;2023-08-07T08:41:14;13.90;99.90
15556;DHT22;7879;48.660;9.116;2023-08-07T08:43:43;14.10;99.90
15556;DHT22;7879;48.660;9.116;2023-08-07T08:46:14;14.30;99.90
15556;DHT22;7879;48.660;9.116;2023-08-07T08:48:48;14.40;99.90
15556;DHT22;7879;48.660;9.116;2023-08-07T08:51:16;14.40;99.90
15556;DHT22;7879;48.660;9.116;2023-08-07T08:53:47;14.40;99.90
15556;DHT22;7879;48.660;9.116;2023-08-07T08:56:16;14.40;99.90
15556;DHT22;7879;48.660;9.116;2023-08-07T08:58:43;14.40;99.90
15556;DHT22;7879;48.660;9.116;2023-08-07T09:01:11;14.60;99.90
15556;DHT22;7879;48.660;9.116;2023-08-07T09:03:39;14.70;99.90
15556;DHT22;7879;48.660;9.116;2023-08-07T09:06:06;14.80;99.90
15556;DHT22;7879;48.660;9.116;2023-08-07T09:08:34;14.90;99.90
15556;DHT22;7879;48.660;9.116;2023-08-07T09:11:02;14.90;99.90
15556;DHT22;7879;48.660;9.116;2023-08-07T09:13:32;15.00;99.90
15556;DHT22;7879;48.660;9.116;2023-08-07T09:16:00;15.00;99.90
15556;DHT22;7879;48.660;9.116;2023-08-07T09:18:28;14.90;99.90
15556;DHT22;7879;48.660;9.116;2023-08-07T09:20:56;14.80;99.90
15556;DHT22;7879;48.660;9.116;2023-08-07T09:23:24;14.90;99.90
15556;DHT22;7879;48.660;9.116;2023-08-07T09:26:04;14.80;99.90
15556;DHT22;7879;48.660;9.116;2023-08-07T09:28:32;14.80;99.90
15556;DHT22;7879;48.660;9.116;2023-08-07T09:30:59;14.80;99.90
15556;DHT22;7879;48.660;9.116;2023-08-07T09:33:29;14.90;99.90
15556;DHT22;7879;48.660;9.116;2023-08-07T09:35:58;15.10;99.90
15556;DHT22;7879;48.660;9.116;2023-08-07T09:38:28;15.30;99.90
15556;DHT22;7879;48.660;9.116;2023-08-07T09:41:03;15.30;99.90
15556;DHT22;7879;48.660;9.116;2023-08-07T09:43:34;15.30;99.90
15556;DHT22;7879;48.660;9.116;2023-08-07T09:46:03;15.40;99.90
15556;DHT22;7879;48.660;9.116;2023-08-07T09:48:30;15.40;99.90
15556;DHT22;7879;48.660;9.116;2023-08-07T09:51:01;15.50;99.90
15556;DHT22;7879;48.660;9.116;2023-08-07T09:53:31;15.50;99.90
15556;DHT22;7879;48.660;9.116;2023-08-07T09:55:58;15.50;99.90
15556;DHT22;7879;48.660;9.116;2023-08-07T09:58:26;15.60;99.90
15556;DHT22;7879;48.660;9.116;2023-08-07T10:00:53;15.50;99.90
15556;DHT22;7879;48.660;9.116;2023-08-07T10:03:21;15.40;99.90
15556;DHT22;7879;48.660;9.116;2023-08-07T10:05:48;15.40;99.90
15556;DHT22;7879;48.660;9.116;2023-08-07T10:08:16;15.40;99.90
15556;DHT22;7879;48.660;9.116;2023-08-07T10:10:43;15.50;99.90
15556;DHT22;7879;48.660;9.116;2023-08-07T10:13:12;15.60;99.90
15556;DHT22;7879;48.660;9.116;2023-08-07T10:15:41;15.60;99.90
15556;DHT22;7879;48.660;9.116;2023-08-07T10:18:09;15.60;99.90
15556;DHT22;7879;48.660;9.116;2023-08-07T10:20:36;15.40;99.90
15556;DHT22;7879;48.660;9.116;2023-08-07T10:23:08;15.40;99.90
15556;DHT22;7879;48.660;9.116;2023-08-07T10:25:41;15.40;99.90
15556;DHT22;7879;48.660;9.116;2023-08-07T10:28:13;15.90;99.90
15556;DHT22;7879;48.660;9.116;2023-08-07T10:30:41;15.90;99.90
15556;DHT22;7879;48.660;9.116;2023-08-07T10:33:10;16.40;99.90
15556;DHT22;7879;48.660;9.116;2023-08-07T10:35:44;16.60;99.90
15556;DHT22;7879;48.660;9.116;2023-08-07T10:38:12;16.60;99.90
15556;DHT22;7879;48.660;9.116;2023-08-07T10:43:25;16.40;99.90
15556;DHT22;7879;48.660;9.116;2023-08-07T10:45:52;16.30;99.90
15556;DHT22;7879;48.660;9.116;2023-08-07T10:48:19;16.40;99.90
15556;DHT22;7879;48.660;9.116;2023-08-07T10:51:02;16.30;99.90
15556;DHT22;7879;48.660;9.116;2023-08-07T10:53:32;16.20;99.90
15556;DHT22;7879;48.660;9.116;2023-08-07T10:56:07;16.20;99.90
15556;DHT22;7879;48.660;9.116;2023-08-07T10:58:38;16.20;99.90
15556;DHT22;7879;48.660;9.116;2023-08-07T11:01:21;16.10;99.90
15556;DHT22;7879;48.660;9.116;2023-08-07T11:03:57;16.30;99.90
15556;DHT22;7879;48.660;9.116;2023-08-07T11:06:24;16.20;99.90
15556;DHT22;7879;48.660;9.116;2023-08-07T11:08:53;16.20;99.90
15556;DHT22;7879;48.660;9.116;2023-08-07T11:11:20;16.20;99.90
15556;DHT22;7879;48.660;9.116;2023-08-07T11:13:47;16.50;99.90
15556;DHT22;7879;48.660;9.116;2023-08-07T11:16:15;16.80;99.90
15556;DHT22;7879;48.660;9.116;2023-08-07T11:18:42;16.70;99.90
15556;DHT22;7879;48.660;9.116;2023-08-07T11:21:10;16.70;99.90
15556;DHT22;7879;48.660;9.116;2023-08-07T11:23:39;16.40;99.90
15556;DHT22;7879;48.660;9.116;2023-08-07T11:26:06;16.30;99.90
15556;DHT22;7879;48.660;9.116;2023-08-07T11:28:33;16.20;99.90
15556;DHT22;7879;48.660;9.116;2023-08-07T11:31:01;16.10;99.90
15556;DHT22;7879;48.660;9.116;2023-08-07T11:33:28;16.00;99.90
15556;DHT22;7879;48.660;9.116;2023-08-07T11:35:55;15.90;99.90
15556;DHT22;7879;48.660;9.116;2023-08-07T11:38:36;15.90;99.90
15556;DHT22;7879;48.660;9.116;2023-08-07T11:41:05;16.00;99.90
15556;DHT22;7879;48.660;9.116;2023-08-07T11:43:36;15.90;99.90
15556;DHT22;7879;48.660;9.116;2023-08-07T11:46:06;15.90;99.90
15556;DHT22;7879;48.660;9.116;2023-08-07T11:48:36;15.90;99.90
15556;DHT22;7879;48.660;9.116;2023-08-07T11:51:04;15.80;99.90
15556;DHT22;7879;48.660;9.116;2023-08-07T11:53:33;15.80;99.90
15556;DHT22;7879;48.660;9.116;2023-08-07T11:56:08;15.80;99.90
15556;DHT22;7879;48.660;9.116;2023-08-07T11:58:45;15.80;99.90
15556;DHT22;7879;48.660;9.116;2023-08-07T12:01:16;15.70;99.90
15556;DHT22;7879;48.660;9.116;2023-08-07T12:03:56;15.60;99.90
15556;DHT22;7879;48.660;9.116;2023-08-07T12:06:24;15.60;99.90
15556;DHT22;7879;48.660;9.116;2023-08-07T12:08:55;15.50;99.90
15556;DHT22;7879;48.660;9.116;2023-08-07T12:11:24;15.50;99.90
15556;DHT22;7879;48.660;9.116;2023-08-07T12:13:51;15.50;99.90
15556;DHT22;7879;48.660;9.116;2023-08-07T12:16:18;15.50;99.90
15556;DHT22;7879;48.660;9.116;2023-08-07T12:18:47;15.60;99.90
15556;DHT22;7879;48.660;9.116;2023-08-07T12:21:18;15.50;99.90
15556;DHT22;7879;48.660;9.116;2023-08-07T12:23:46;15.50;99.90
15556;DHT22;7879;48.660;9.116;2023-08-07T12:26:16;15.40;99.90
15556;DHT22;7879;48.660;9.116;2023-08-07T12:28:43;15.20;99.90
15556;DHT22;7879;48.660;9.116;2023-08-07T12:31:10;15.00;99.90
15556;DHT22;7879;48.660;9.116;2023-08-07T12:33:37;14.90;99.90
15556;DHT22;7879;48.660;9.116;2023-08-07T12:36:04;14.90;99.90
15556;DHT22;7879;48.660;9.116;2023-08-07T12:38:46;14.80;99.90
15556;DHT22;7879;48.660;9.116;2023-08-07T12:41:13;14.90;99.90
15556;DHT22;7879;48.660;9.116;2023-08-07T12:43:43;14.90;99.90
15556;DHT22;7879;48.660;9.116;2023-08-07T12:46:10;14.90;99.90
15556;DHT22;7879;48.660;9.116;2023-08-07T12:48:40;14.90;99.90
15556;DHT22;7879;48.660;9.116;2023-08-07T12:51:07;14.90;99.90
15556;DHT22;7879;48.660;9.116;2023-08-07T12:53:34;15.00;99.90
15556;DHT22;7879;48.660;9.116;2023-08-07T12:56:01;15.10;99.90
15556;DHT22;7879;48.660;9.116;2023-08-07T12:58:29;15.00;99.90
15556;DHT22;7879;48.660;9.116;2023-08-07T13:00:56;15.00;99.90
15556;DHT22;7879;48.660;9.116;2023-08-07T13:03:23;15.10;99.90
15556;DHT22;7879;48.660;9.116;2023-08-07T13:05:50;15.00;99.90
15556;DHT22;7879;48.660;9.116;2023-08-07T13:08:17;14.90;99.90
15556;DHT22;7879;48.660;9.116;2023-08-07T13:10:44;14.80;99.90
15556;DHT22;7879;48.660;9.116;2023-08-07T13:13:15;14.80;99.90
15556;DHT22;7879;48.660;9.116;2023-08-07T13:15:42;14.80;99.90
15556;DHT22;7879;48.660;9.116;2023-08-07T13:18:08;14.90;99.90
15556;DHT22;7879;48.660;9.116;2023-08-07T13:20:35;14.90;99.90
15556;DHT22;7879;48.660;9.116;2023-08-07T13:23:02;15.10;99.90
15556;DHT22;7879;48.660;9.116;2023-08-07T13:25:32;15.20;99.90
15556;DHT22;7879;48.660;9.116;2023-08-07T13:28:00;15.40;99.90
15556;DHT22;7879;48.660;9.116;2023-08-07T13:30:27;15.50;99.90
15556;DHT22;7879;48.660;9.116;2023-08-07T13:33:02;15.50;99.90
15556;DHT22;7879;48.660;9.116;2023-08-07T13:35:29;15.60;99.90
15556;DHT22;7879;48.660;9.116;2023-08-07T13:37:56;15.60;99.90
15556;DHT22;7879;48.660;9.116;2023-08-07T13:40:23;15.50;99.90
15556;DHT22;7879;48.660;9.116;2023-08-07T13:42:49;15.50;99.90
15556;DHT22;7879;48.660;9.116;2023-08-07T13:45:16;15.60;99.90
15556;DHT22;7879;48.660;9.116;2023-08-07T13:47:43;15.50;99.90
15556;DHT22;7879;48.660;9.116;2023-08-07T13:50:10;15.50;99.90
15556;DHT22;7879;48.660;9.116;2023-08-07T13:52:39;15.60;99.90
15556;DHT22;7879;48.660;9.116;2023-08-07T13:55:06;15.70;99.90
15556;DHT22;7879;48.660;9.116;2023-08-07T13:57:35;15.90;99.90
15556;DHT22;7879;48.660;9.116;2023-08-07T14:00:03;16.10;99.90
15556;DHT22;7879;48.660;9.116;2023-08-07T14:02:30;16.30;99.90
15556;DHT22;7879;48.660;9.116;2023-08-07T14:04:58;16.30;99.90
15556;DHT22;7879;48.660;9.116;2023-08-07T14:07:25;16.30;99.90
15556;DHT22;7879;48.660;9.116;2023-08-07T14:09:52;16.40;99.90
15556;DHT22;7879;48.660;9.116;2023-08-07T14:12:19;16.40;99.90
15556;DHT22;7879;48.660;9.116;2023-08-07T14:14:45;16.50;99.90
15556;DHT22;7879;48.660;9.116;2023-08-07T14:17:12;16.60;99.90
15556;DHT22;7879;48.660;9.116;2023-08-07T14:19:39;16.60;99.90
15556;DHT22;7879;48.660;9.116;2023-08-07T14:22:06;16.60;99.90
15556;DHT22;7879;48.660;9.116;2023-08-07T14:24:33;16.60;99.90
15556;DHT22;7879;48.660;9.116;2023-08-07T14:26:59;16.60;99.90
15556;DHT22;7879;48.660;9.116;2023-08-07T14:29:26;16.60;99.90
15556;DHT22;7879;48.660;9.116;2023-08-07T14:31:53;16.70;99.90
15556;DHT22;7879;48.660;9.116;2023-08-07T14:34:20;16.70;99.90
15556;DHT22;7879;48.660;9.116;2023-08-07T14:36:46;16.80;99.90
15556;DHT22;7879;48.660;9.116;2023-08-07T14:39:13;16.80;99.90
15556;DHT22;7879;48.660;9.116;2023-08-07T14:41:40;16.80;99.90
15556;DHT22;7879;48.660;9.116;2023-08-07T14:44:07;16.80;99.90
15556;DHT22;7879;48.660;9.116;2023-08-07T14:46:33;16.70;99.90
15556;DHT22;7879;48.660;9.116;2023-08-07T14:49:00;16.70;99.90
15556;DHT22;7879;48.660;9.116;2023-08-07T14:51:27;16.70;99.90
15556;DHT22;7879;48.660;9.116;2023-08-07T14:53:54;16.60;99.90
15556;DHT22;7879;48.660;9.116;2023-08-07T14:56:21;16.50;99.90
15556;DHT22;7879;48.660;9.116;2023-08-07T14:58:48;16.40;99.90
15556;DHT22;7879;48.660;9.116;2023-08-07T15:01:15;16.40;99.90
15556;DHT22;7879;48.660;9.116;2023-08-07T15:03:42;16.30;99.90
15556;DHT22;7879;48.660;9.116;2023-08-07T15:06:09;16.20;99.90
15556;DHT22;7879;48.660;9.116;2023-08-07T15:08:35;16.20;99.90
15556;DHT22;7879;48.660;9.116;2023-08-07T15:11:02;16.10;99.90
15556;DHT22;7879;48.660;9.116;2023-08-07T15:13:29;16.10;99.90
15556;DHT22;7879;48.660;9.116;2023-08-07T15:15:56;16.20;99.90
15556;DHT22;7879;48.660;9.116;2023-08-07T15:18:23;16.30;99.90
15556;DHT22;7879;48.660;9.116;2023-08-07T15:20:50;16.30;99.90
15556;DHT22;7879;48.660;9.116;2023-08-07T15:23:17;16.30;99.90
15556;DHT22;7879;48.660;9.116;2023-08-07T15:25:44;16.30;99.90
15556;DHT22;7879;48.660;9.116;2023-08-07T15:28:11;16.30;99.90
15556;DHT22;7879;48.660;9.116;2023-08-07T15:30:37;16.30;99.90
15556;DHT22;7879;48.660;9.116;2023-08-07T15:33:04;16.40;99.90
15556;DHT22;7879;48.660;9.116;2023-08-07T15:35:32;16.40;99.90
15556;DHT22;7879;48.660;9.116;2023-08-07T15:37:59;16.60;99.90
15556;DHT22;7879;48.660;9.116;2023-08-07T15:40:29;16.60;99.90
15556;DHT22;7879;48.660;9.116;2023-08-07T15:42:55;16.70;99.90
15556;DHT22;7879;48.660;9.116;2023-08-07T15:45:22;16.60;99.90
15556;DHT22;7879;48.660;9.116;2023-08-07T15:47:49;16.60;99.90
15556;DHT22;7879;48.660;9.116;2023-08-07T15:50:16;16.60;99.90
15556;DHT22;7879;48.660;9.116;2023-08-07T15:52:43;16.60;99.90
15556;DHT22;7879;48.660;9.116;2023-08-07T15:55:11;16.50;99.90
15556;DHT22;7879;48.660;9.116;2023-08-07T15:57:38;16.50;99.90
15556;DHT22;7879;48.660;9.116;2023-08-07T16:00:06;16.60;99.90
15556;DHT22;7879;48.660;9.116;2023-08-07T16:02:33;16.60;99.90
15556;DHT22;7879;48.660;9.116;2023-08-07T16:05:00;16.60;99.90